METAR / TAF

La lista dei METAR e dei TAF non è pensata per essere utilizzata per i briefing meteorologici (in particolare per ragioni tecniche non è possibile garantire la sua costante disponibilità e un aggiornamento continuo). Per i briefing meteorologici si consiglia di utilizzare lo skybriefing di Skyguide oppure il TAMSI (piattaforma  di MeteoSvizzera per l’autobriefing per i professionisti dell’aviazione – per informazioni utilizzare il formulario di contatto).

 

METAR Svizzera

METAR     LSZH 140420Z VRB04KT 9999 FEW018 BKN080 M02/M05 Q1015
               NOSIG=
METAR     LSZH 140450Z VRB02KT 9999 FEW018 BKN080 M02/M05 Q1015
               NOSIG=
METAR     LSGG 140420Z AUTO 36003KT 9999 SCT018 SCT022 OVC031
               01/M03 Q1013 NOSIG=
METAR     LSGG 140450Z VRB02KT 9999 OVC018 01/M03 Q1013 NOSIG=
METAR     LFSB 140430Z 34004KT 8000 NSC M02/M03 Q1015 NOSIG=
METAR     LSZB 140420Z AUTO 27005KT 9000 // OVC050 M01/M03 Q1013=
METAR     LSZB 140450Z AUTO 29004KT 9000 // OVC050 M01/M03 Q1013=
METAR     LSZA 140420Z AUTO 02002KT CAVOK M02/M04 Q1015=
METAR     LSZA 140450Z AUTO 36003KT CAVOK M03/M05 Q1015=
METAR     LSZG 140420Z AUTO 06010KT 9999 OVC025 M01/M04 Q1014=
METAR     LSZG 140450Z AUTO 07011KT 9999 SCT026 OVC060 M01/M04
               Q1014=
METAR     LSZR 140420Z AUTO 10004KT 9999 NCD M05/M07 Q1015=
METAR     LSZR 140450Z AUTO 11006KT 9999 BKN017 M05/M07 Q1015=
METAR     LSGS 140420Z AUTO 10004KT CAVOK M02/M09 Q1013=
METAR     LSGS 140450Z AUTO 11003KT CAVOK M02/M10 Q1013=
METAR     LSGC 140420Z AUTO VRB02KT 9999 SCT032 BKN037 M04/M06
               Q1010=
METAR     LSGC 140450Z AUTO VRB01KT 9999 FEW031 BKN036 BKN041
               M04/M06 Q1010=
METAR     LSZC 140420Z AUTO VRB01KT 9999 OVC018 M00/M03 Q1014 RESN=
METAR     LSZC 140450Z AUTO 20003KT 9999 NCD M01/M03 Q1014 RESN=
METAR RRA LSZL 140420Z AUTO 07004KT 9999NDV NCD M01/M05 Q1015 RMK=
METAR RRA LSZL 140450Z AUTO 05003KT 9999NDV NCD M02/M05 Q1015 RMK=
METAR     LSZS 140420Z AUTO VRB01KT 9000 BKN070 M18/M20 Q1009=
METAR     LSZS 140450Z AUTO VRB01KT 9999 FEW060 M18/M21 Q1009=
METAR RRA LSMA 140420Z AUTO 08005KT 9999NDV -SHRASN SCT017 BKN059
               OVC085 M00/M04 Q1014 RMK=
METAR     LSMA 140450Z AUTO 08005KT 9999NDV BKN019 BKN059 OVC085
               M00/M04 Q1014 RMK=
METAR RRA LSMD 140420Z AUTO 07005KT 030V140 9999NDV OVC087 M02/M05
               Q1014 RMK=
METAR RRA LSMD 140450Z AUTO 07005KT 350V110 9999NDV FEW073 OVC084
               M02/M05 Q1014 RMK=
METAR RRA LSME 140420Z AUTO 05003KT 9999NDV FEW021 BKN025 OVC084
               M01/M04 Q1014 RMK=
METAR RRA LSME 140450Z AUTO VRB02KT 9999NDV FEW020 BKN024 OVC084
               M01/M04 Q1014 RMK=
METAR RRA LSMM 140420Z AUTO 06009KT 020V110 9999NDV OVC057 M01/M04
               Q1012 RMK=
METAR RRA LSMM 140450Z AUTO 04006KT 340V110 9999NDV OVC058 M01/M04
               Q1012 RMK=
METAR RRA LSMP 140420Z AUTO 06004KT 9999NDV FEW013 OVC051 M01/M02
               Q1013 RMK=
METAR RRA LSMP 140450Z AUTO 05004KT 360V080 9000NDV FEW013 OVC049
               M01/M03 Q1013 RMK=
METAR     LSMS 140420Z AUTO 10004KT CAVOK M02/M09 Q1013=
METAR     LSMS 140450Z AUTO 11003KT CAVOK M02/M10 Q1013=
aggiornamento venerdì 14 dicembre 2018 ore 06:10

TAF Svizzera

TAF     LSZH 140225Z 1403/1509 34005KT 9999 FEW020 SCT090
             TX01/1414Z TNM03/1405Z TNM04/1505Z PROB30 1404/1408
             BKN013 BECMG 1407/1409 05007KT BECMG 1417/1419
             VRB03KT BECMG 1422/1501 OVC010 PROB40 1502/1509 4000
             BR=
TAF     LSGG 140225Z 1403/1509 VRB03KT 9999 FEW030 BKN050
             TX02/1414Z TNM01/1406Z TNM01/1506Z=
TAF     LFSB 132300Z 1400/1424 32005KT 9999 FEW008 BKN060 PROB40
             TEMPO 1403/1409 3500 BR BKN010 BECMG 1421/1424 3000
             BR=
TAF     LSZL 140225Z 1403/1412 07004KT 9999 BKN085 BECMG 1407/1410
             CAVOK=
TAF     LSMA 131625Z 1317/1423 VRB03KT 9999 BKN060 PROB40 TEMPO
             1317/1406 -SN=
TAF AAA LSMD 131830Z 1318/1423 VRB03KT 9999 SCT030 BKN070 TEMPO
             1318/1320 -SN PROB40 TEMPO 1400/1407 BKN013=
TAF     LSMD 131625Z 1317/1423 VRB03KT 9999 SCT030 BKN070 PROB40
             TEMPO 1400/1407 BKN013=
TAF     LSME 131625Z 1317/1423 VRB03KT 9999 BKN060 PROB40 TEMPO
             1317/1404 -SN=
TAF     LSMM 131625Z 1317/1423 VRB03KT 9999 BKN070 PROB40 TEMPO
             1317/1406 -SN=
TAF     LSMP 131625Z 1317/1423 VRB03KT 9999 BKN050=
aggiornamento venerdì 14 dicembre 2018 ore 05:22